Flight Track Log - Related Links

Times and Time Zones

All times are in EDT time to prevent confusion due to time zone crossing. See the N333RL flight status page for this flight to view local times or setup timezone preferences in your user account.

Time Position Orientation Groundspeed Altitude Reporting Facility
EDT Latitude Longitude Course Direction KTS MPH feet Rate Location/Type
Fri 10:15:24 AM 42.3667 -82.9664 140° Southeast 174 200 2,100  Level Cleveland Center
Fri 10:16:24 AM 42.3111 -82.9361 158° South 238 274 4,100 2,132 Climbing Cleveland Center
Fri 10:17:25 AM 42.2467 -82.9225 171° South 251 289 6,400 2,902 Climbing Cleveland Center
Fri 10:18:26 AM 42.1697 -82.9169 177° South 283 326 10,000 3,308 Climbing Cleveland Center
Fri 10:19:12 AM 42.1211 -82.9431 202° Southwest 315 362 12,300 1,698 Climbing Cleveland Center
Fri 10:20:12 AM 42.0575 -83.0022 215° Southwest 294 338 13,000 450 Climbing Cleveland Center
Fri 10:21:12 AM 41.9894 -83.0639 214° Southwest 294 338 13,200 1,250 Climbing Cleveland Center
Fri 10:22:12 AM 41.9131 -83.1281 212° Southwest 308 354 15,500 2,300 Climbing Cleveland Center
Fri 10:23:12 AM 41.8364 -83.2003 215° Southwest 325 374 17,800 1,750 Climbing Cleveland Center
Fri 10:24:12 AM 41.7511 -83.2719 212° Southwest 353 406 19,000 900 Climbing Cleveland Center
Fri 10:25:12 AM 41.6475 -83.3314 203° Southwest 381 438 19,600 700 Climbing Cleveland Center
Fri 10:26:12 AM 41.5425 -83.3658 194° South 386 444 20,400 1,100 Climbing Cleveland Center
Fri 10:27:12 AM 41.4394 -83.4031 195° South 391 450 21,800 1,500 Climbing Cleveland Center
Fri 10:28:12 AM 41.3344 -83.4372 194° South 391 450 23,400 1,150 Climbing Cleveland Center
Fri 10:29:12 AM 41.2269 -83.4767 195° South 398 458 24,100 1,000 Climbing Cleveland Center
Fri 10:30:12 AM 41.1269 -83.5547 210° Southwest 408 470 25,400 1,450 Climbing Cleveland Center
Fri 10:31:12 AM 41.0711 -83.6956 242° Southwest 395 455 27,000 1,542 Climbing Cleveland Center
Fri 10:33:11 AM 40.9206 -83.8544 219° Southwest 416 479 30,000 1,890 Climbing Indianapolis Center
Fri 10:34:13 AM 40.7856 -83.8839 189° South 418 481 32,700 2,226 Climbing Indianapolis Center
Fri 10:35:15 AM 40.6744 -83.9011 187° South 401 461 34,600 1,694 Climbing Indianapolis Center
Fri 10:36:17 AM 40.5636 -83.8900 176° South 396 456 36,200 1,065 Climbing Indianapolis Center
Fri 10:37:19 AM 40.4508 -83.8767 175° South 402 463 36,800 387 Climbing Indianapolis Center
Fri 10:38:21 AM 40.3328 -83.8631 175° South 420 483 37,000 97 Climbing Indianapolis Center
Fri 10:39:23 AM 40.2128 -83.8497 175° South 427 491 37,000  Level Indianapolis Center
Fri 10:40:25 AM 40.0928 -83.8367 175° South 431 496 37,000  Level Indianapolis Center
Fri 10:41:27 AM 39.9542 -83.8203 175° South 428 493 37,000  Level Indianapolis Center
Fri 10:42:29 AM 39.8364 -83.8078 175° South 427 491 37,000 290 Level Indianapolis Center
Fri 10:43:31 AM 39.7181 -83.7953 175° South 426 490 37,600 780 Climbing Indianapolis Center
Fri 10:44:32 AM 39.6022 -83.7822 175° South 421 484 38,600 927 Climbing Indianapolis Center
Fri 10:45:34 AM 39.4869 -83.7700 175° South 415 478 39,500 871 Climbing Indianapolis Center
Fri 10:46:36 AM 39.3744 -83.7575 175° South 405 466 40,400 726 Climbing Indianapolis Center
Fri 10:47:38 AM 39.2411 -83.7425 175° South 407 468 41,000 290 Climbing Indianapolis Center
Fri 10:48:40 AM 39.1256 -83.7306 175° South 412 474 41,000  Level Indianapolis Center
Fri 10:49:42 AM 39.0094 -83.7164 175° South 415 478 41,000  Level Indianapolis Center
Fri 10:50:44 AM 38.8942 -83.6811 167° South 419 482 41,000  Level Indianapolis Center
Fri 10:51:46 AM 38.7803 -83.6475 167° South 416 479 41,000  Level Indianapolis Center
Fri 10:52:47 AM 38.6656 -83.6128 167° South 418 481 41,000  Level Indianapolis Center
Fri 10:53:49 AM 38.5356 -83.5722 166° South 414 476 41,000  Level Indianapolis Center
Fri 10:54:51 AM 38.4217 -83.5383 167° South 418 481 41,000  Level Indianapolis Center
Fri 10:55:53 AM 38.3081 -83.5039 167° South 417 480 41,000  Level Indianapolis Center
Fri 10:56:55 AM 38.1931 -83.4717 168° South 421 484 41,000  Level Indianapolis Center
Fri 10:57:57 AM 38.0789 -83.4367 166° South 420 483 41,000  Level Indianapolis Center
Fri 10:58:59 AM 37.9639 -83.4031 167° South 423 487 41,000  Level Indianapolis Center
Fri 11:00:00 AM 37.8289 -83.3642 167° South 425 489 41,000  Level Indianapolis Center
Fri 11:01:02 AM 37.7136 -83.3289 166° South 425 489 41,000  Level Indianapolis Center
Fri 11:02:04 AM 37.5983 -83.2967 168° South 425 489 41,000  Level Indianapolis Center
Fri 11:03:06 AM 37.4828 -83.2622 167° South 426 490 41,000  Level Indianapolis Center
Fri 11:04:08 AM 37.3681 -83.2297 167° South 425 489 41,000  Level Indianapolis Center
Fri 11:05:10 AM 37.2331 -83.1917 167° South 424 488 41,000  Level Indianapolis Center
Fri 11:06:12 AM 37.1186 -83.1589 167° South 424 488 41,000  Level Indianapolis Center
Fri 11:07:13 AM 37.0044 -83.1256 167° South 423 487 41,000  Level Indianapolis Center
Fri 11:08:15 AM 36.8906 -83.0928 167° South 425 489 41,000  Level Indianapolis Center
Fri 11:08:49 AM 36.8114 -83.0767 171° South 432 497 41,000  Level Atlanta Center
Fri 11:09:49 AM 36.6986 -83.0394 165° South 427 491 41,000  Level Atlanta Center
Fri 11:10:49 AM 36.5836 -83.0072 167° South 427 491 41,000  Level Atlanta Center
Fri 11:11:49 AM 36.4708 -82.9750 167° South 427 491 41,000  Level Atlanta Center
Fri 11:12:49 AM 36.3558 -82.9406 166° South 421 484 41,000  Level Atlanta Center
Fri 11:13:49 AM 36.2428 -82.9086 167° South 421 484 41,000  Level Atlanta Center
Fri 11:14:49 AM 36.1300 -82.8767 167° South 421 484 41,000  Level Atlanta Center
Fri 11:15:49 AM 36.0150 -82.8450 167° South 421 484 41,000  Level Atlanta Center
Fri 11:16:49 AM 35.8978 -82.8133 168° South 421 484 41,000  Level Atlanta Center
Fri 11:17:49 AM 35.7828 -82.7794 167° South 426 490 41,000  Level Atlanta Center
Fri 11:18:49 AM 35.6678 -82.7478 167° South 426 490 41,000  Level Atlanta Center
Fri 11:19:49 AM 35.5525 -82.7164 168° South 426 490 41,000  Level Atlanta Center
Fri 11:20:49 AM 35.4375 -82.6853 168° South 426 490 41,000  Level Atlanta Center
Fri 11:21:49 AM 35.3225 -82.6567 169° South 426 490 41,000  Level Atlanta Center
Fri 11:22:49 AM 35.2072 -82.6203 166° South 426 490 41,000  Level Atlanta Center
Fri 11:23:49 AM 35.0881 -82.5869 167° South 432 497 41,000  Level Atlanta Center
Fri 11:24:49 AM 34.9728 -82.5583 169° South 432 497 41,000  Level Atlanta Center
Fri 11:25:49 AM 34.8578 -82.5300 169° South 432 497 41,000  Level Atlanta Center
Fri 11:26:49 AM 34.7403 -82.4944 166° South 432 497 41,000  Level Atlanta Center
Fri 11:27:49 AM 34.6211 -82.4586 166° South 432 497 41,000  Level Atlanta Center
Fri 11:28:49 AM 34.5058 -82.4331 170° South 437 503 41,000  Level Atlanta Center
Fri 11:29:49 AM 34.3928 -82.4000 166° South 432 497 41,000  Level Atlanta Center
Fri 11:31:00 AM 34.2652 -82.3653 167° South  Level FlightAware Approximate
Fri 11:31:49 AM 34.1581 -82.3392 167° South 432 497 41,000  Level Atlanta Center
Fri 11:32:49 AM 34.0431 -82.3089 168° South 432 497 41,000  Level Atlanta Center
Fri 11:33:49 AM 33.9236 -82.2739 166° South 432 497 41,000  Level Atlanta Center
Fri 11:34:49 AM 33.8061 -82.2414 167° South 432 497 41,000  Level Atlanta Center
Fri 11:35:49 AM 33.6867 -82.2114 168° South 432 497 41,000  Level Atlanta Center
Fri 11:36:49 AM 33.5672 -82.1814 168° South 432 497 41,000 200 Level Atlanta Center
Fri 11:37:49 AM 33.4519 -82.1517 168° South 432 497 41,400 500 Climbing Atlanta Center
Fri 11:38:49 AM 33.3367 -82.1217 168° South 426 490 42,000 500 Climbing Atlanta Center
Fri 11:39:49 AM 33.2236 -82.0919 168° South 426 490 42,400 350 Climbing Atlanta Center
Fri 11:40:49 AM 33.1103 -82.0622 168° South 426 490 42,700 181 Climbing Atlanta Center
Fri 11:43:08 AM 32.8586 -81.9972 168° South 420 483 43,000 90 Climbing Jacksonville Center
Fri 11:44:08 AM 32.7414 -81.9689 169° South 420 483 43,000  Level Jacksonville Center
Fri 11:45:08 AM 32.6203 -81.9381 168° South 406 467 43,000  Level Jacksonville Center
Fri 11:46:08 AM 32.5156 -81.9119 168° South 406 467 43,000  Level Jacksonville Center
Fri 11:47:08 AM 32.3881 -81.8789 168° South 429 494 43,000  Level Jacksonville Center
Fri 11:48:08 AM 32.2856 -81.8531 168° South 429 494 43,000  Level Jacksonville Center
Fri 11:49:08 AM 32.1578 -81.8225 169° South 429 494 43,000  Level Jacksonville Center
Fri 11:50:08 AM 32.0428 -81.7922 167° South 429 494 43,000  Level Jacksonville Center
Fri 11:51:08 AM 31.9381 -81.7639 167° South 424 488 43,000  Level Jacksonville Center
Fri 11:52:08 AM 31.8125 -81.7336 168° South 424 488 43,000  Level Jacksonville Center
Fri 11:53:08 AM 31.6975 -81.7058 168° South 429 494 43,000  Level Jacksonville Center
Fri 11:54:08 AM 31.5803 -81.6756 168° South 429 494 43,000  Level Jacksonville Center
Fri 11:55:08 AM 31.4653 -81.6456 167° South 424 488 43,000  Level Jacksonville Center
Fri 11:56:08 AM 31.3583 -81.6203 169° South 431 496 43,000  Level Jacksonville Center
Fri 11:57:08 AM 31.2433 -81.5925 168° South 431 496 43,000  Level Jacksonville Center
Fri 11:58:08 AM 31.1281 -81.5625 167° South 431 496 43,000  Level Jacksonville Center
Fri 11:59:08 AM 31.0108 -81.5328 168° South 431 496 43,000  Level Jacksonville Center
Fri 12:00:08 PM 30.8936 -81.5006 167° South 431 496 43,000  Level Jacksonville Center
Fri 12:01:08 PM 30.7806 -81.4658 165° South 431 496 43,000  Level Jacksonville Center
Fri 12:02:08 PM 30.6694 -81.4192 160° South 426 490 43,000  Level Jacksonville Center
Fri 12:03:08 PM 30.5539 -81.3728 161° South 431 496 43,000  Level Jacksonville Center
Fri 12:04:08 PM 30.4428 -81.3311 162° South 431 496 43,000  Level Jacksonville Center
Fri 12:05:08 PM 30.3147 -81.2853 163° South 431 496 43,000 -400 Level Jacksonville Center
Fri 12:06:08 PM 30.2303 -81.2000 139° Southeast 431 496 42,200 -800 Descending Jacksonville Center
Fri 12:07:08 PM 30.1250 -81.1394 154° Southeast 431 496 41,400 -800 Descending Jacksonville Center
Fri 12:08:08 PM 30.0156 -81.0694 151° Southeast 431 496 40,600 -800 Descending Jacksonville Center
Fri 12:09:08 PM 29.9142 -80.9922 147° Southeast 436 502 39,800 -800 Descending Jacksonville Center
Fri 12:10:08 PM 29.8108 -80.9178 148° Southeast 441 507 39,000 -800 Descending Jacksonville Center
Fri 12:11:08 PM 29.6975 -80.8889 168° South 419 482 38,200 -800 Descending Jacksonville Center
Fri 12:12:08 PM 29.5831 -80.9033 186° South 412 474 37,400 -800 Descending Jacksonville Center
Fri 12:13:08 PM 29.4767 -80.9222 189° South 391 450 36,600 -700 Descending Jacksonville Center
Fri 12:14:08 PM 29.3728 -80.9433 190° South 391 450 36,000 -213 Descending Jacksonville Center
Fri 12:15:57 PM 29.1761 -80.9822 190° South 394 453 36,000  Level Miami Center
Fri 12:16:57 PM 29.0669 -80.9994 188° South 394 453 36,000  Level Miami Center
Fri 12:17:57 PM 28.9511 -80.9714 168° South 406 467 36,000  Level Miami Center
Fri 12:18:57 PM 28.8531 -80.8944 145° Southeast 403 464 36,000  Level Miami Center
Fri 12:19:57 PM 28.7575 -80.8128 143° Southeast 433 498 36,000  Level Miami Center
Fri 12:20:57 PM 28.6894 -80.6992 124° Southeast 447 514 36,000 -400 Level Miami Center
Fri 12:21:57 PM 28.5878 -80.5989 139° Southeast 432 497 35,200 -1,600 Descending Miami Center
Fri 12:22:57 PM 28.4875 -80.5247 147° Southeast 440 506 32,800 -2,650 Descending Miami Center
Fri 12:23:57 PM 28.3872 -80.4506 147° Southeast 440 506 29,900 -2,750 Descending Miami Center
Fri 12:24:57 PM 28.3011 -80.3889 148° Southeast 421 484 27,300 -2,500 Descending Miami Center
Fri 12:25:57 PM 28.2028 -80.3175 147° Southeast 421 484 24,900 -2,700 Descending Miami Center
Fri 12:26:57 PM 28.0939 -80.2436 149° Southeast 420 483 21,900 -2,350 Descending Miami Center
Fri 12:27:57 PM 27.9861 -80.2122 166° South 406 467 20,200 -1,600 Descending Miami Center
Fri 12:28:57 PM 27.8756 -80.2017 175° South 401 461 18,700 -1,550 Descending Miami Center
Fri 12:29:57 PM 27.7839 -80.1919 175° South 384 442 17,100 -1,550 Descending Miami Center
Fri 12:30:57 PM 27.6800 -80.1797 174° South 384 442 15,600 -1,600 Descending Miami Center
Fri 12:31:57 PM 27.5717 -80.1672 174° South 379 436 13,900 -1,650 Descending Miami Center
Fri 12:32:57 PM 27.4736 -80.1550 174° South 367 422 12,300 -1,600 Descending Miami Center
Fri 12:33:57 PM 27.3842 -80.1478 176° South 342 394 10,700 -1,150 Descending Miami Center
Fri 12:34:57 PM 27.3158 -80.1247 163° South 306 352 10,000 -450 Descending Miami Center
Fri 12:35:57 PM 27.2392 -80.0969 162° South 287 330 9,800 -750 Descending Miami Center
Fri 12:36:57 PM 27.1542 -80.0664 162° South 287 330 8,500 -1,350 Descending Miami Center
Fri 12:37:57 PM 27.0775 -80.0411 164° South 287 330 7,100 -1,400 Descending Miami Center
Fri 12:38:57 PM 27.0006 -80.0272 171° South 282 325 5,700 -1,350 Descending Miami Center
Fri 12:39:57 PM 26.9361 -80.0139 170° South 277 319 4,400 -1,350 Descending Miami Center
Fri 12:40:57 PM 26.8672 -80.0144 180° South 267 307 3,000 -1,300 Descending Miami Center
Fri 12:41:57 PM 26.7944 -80.0008 171° South 251 289 1,800 -1,200 Descending Miami Center
Fri 12:43:00 PM 26.7034 -80.0784 265° West  Level Estimated
Fri 12:50:00 PM 26.6832 -80.0956 110° East  Level Estimated
Fri 12:51:00 PM 26.6832 -80.0956 110° East  Level Estimated
Fri 12:52:00 PM 26.6832 -80.0956 110° East  Level Estimated
Fri 12:53:00 PM 26.6832 -80.0956 110° East  Level Estimated
Fri 12:54:00 PM 26.6832 -80.0956 110° East  Level Estimated

Login

Don't have an account? Register now (free) for customized features, flight alerts, and more!